createdAt,value
2023-04-10T00:01:17.940Z,7.09
2023-04-10T00:03:52.183Z,7.06
2023-04-10T00:06:26.774Z,7.02
2023-04-10T00:09:00.469Z,7.04
2023-04-10T00:11:33.390Z,7.02
2023-04-10T00:14:07.155Z,6.98
2023-04-10T00:16:41.889Z,6.93
2023-04-10T00:19:15.186Z,6.91
2023-04-10T00:21:48.811Z,6.86
2023-04-10T00:24:22.329Z,6.81
2023-04-10T00:26:57.121Z,6.75
2023-04-10T00:29:29.816Z,6.71
2023-04-10T00:32:03.514Z,6.73
2023-04-10T00:34:36.704Z,6.75
2023-04-10T00:37:10.980Z,6.79
2023-04-10T00:39:44.096Z,6.79
2023-04-10T00:42:18.689Z,6.80
2023-04-10T00:44:51.780Z,6.80
2023-04-10T00:47:25.484Z,6.84
2023-04-10T00:49:58.608Z,6.87
2023-04-10T00:52:31.910Z,6.88
2023-04-10T00:55:06.187Z,6.91
2023-04-10T00:57:40.870Z,6.90
2023-04-10T01:00:16.543Z,6.90
2023-04-10T01:02:50.153Z,6.89
2023-04-10T01:05:24.573Z,6.90
2023-04-10T01:08:08.342Z,6.93
2023-04-10T01:11:06.599Z,6.93
2023-04-10T01:13:56.439Z,6.95
2023-04-10T01:16:35.571Z,6.98
2023-04-10T01:19:18.916Z,6.98
2023-04-10T01:21:54.853Z,6.98
2023-04-10T01:24:56.752Z,6.99
2023-04-10T01:27:54.868Z,7.01
2023-04-10T01:30:29.129Z,7.03
2023-04-10T01:33:03.217Z,7.05
2023-04-10T01:35:37.805Z,7.06
2023-04-10T01:38:13.177Z,7.09
2023-04-10T01:40:50.474Z,7.14
2023-04-10T01:43:26.459Z,7.19
2023-04-10T01:46:00.651Z,7.21
2023-04-10T01:48:33.240Z,7.23
2023-04-10T01:51:07.354Z,7.26
2023-04-10T01:53:41.586Z,7.28
2023-04-10T01:56:16.188Z,7.29
2023-04-10T01:58:51.696Z,7.31
2023-04-10T02:01:29.621Z,7.31
2023-04-10T02:04:01.342Z,7.30
2023-04-10T02:06:54.546Z,7.31
2023-04-10T02:09:55.078Z,7.33
2023-04-10T02:12:38.403Z,7.35
2023-04-10T02:15:12.796Z,7.35
2023-04-10T02:17:46.664Z,7.35
2023-04-10T02:20:20.586Z,7.34
2023-04-10T02:22:54.739Z,7.32
2023-04-10T02:25:27.674Z,7.31
2023-04-10T02:28:09.075Z,7.28
2023-04-10T02:30:43.749Z,7.22
2023-04-10T02:33:18.026Z,7.17
2023-04-10T02:35:51.096Z,7.13
2023-04-10T02:38:25.227Z,7.10
2023-04-10T02:40:58.395Z,7.09
2023-04-10T02:43:31.702Z,7.04
2023-04-10T02:46:04.805Z,7.00
2023-04-10T02:48:40.796Z,6.97
2023-04-10T02:51:14.625Z,6.91
2023-04-10T02:53:49.080Z,6.88
2023-04-10T02:56:26.077Z,6.83
2023-04-10T02:58:59.185Z,6.79
2023-04-10T03:01:32.881Z,6.76
2023-04-10T03:04:06.699Z,6.75
2023-04-10T03:06:42.033Z,6.75
2023-04-10T03:09:15.832Z,6.74
2023-04-10T03:11:48.867Z,6.72
2023-04-10T03:14:22.482Z,6.72
2023-04-10T03:16:55.539Z,6.72
2023-04-10T03:19:28.672Z,6.70
2023-04-10T03:22:02.585Z,6.72
2023-04-10T03:24:35.933Z,6.69
2023-04-10T03:27:09.688Z,6.65
2023-04-10T03:29:44.379Z,6.60
2023-04-10T03:32:17.979Z,6.58
2023-04-10T03:34:51.213Z,6.54
2023-04-10T03:37:24.354Z,6.50
2023-04-10T03:39:57.817Z,6.47
2023-04-10T03:42:30.833Z,6.49
2023-04-10T03:45:06.631Z,6.52
2023-04-10T03:47:41.582Z,6.54
2023-04-10T03:50:14.844Z,6.59
2023-04-10T03:52:52.559Z,6.67
2023-04-10T03:55:26.568Z,6.72
2023-04-10T03:57:59.783Z,6.79
2023-04-10T04:00:33.892Z,6.83
2023-04-10T04:03:09.335Z,6.82
2023-04-10T04:05:52.885Z,6.85
2023-04-10T04:08:44.279Z,6.87
2023-04-10T04:11:25.129Z,6.92
2023-04-10T04:13:59.218Z,7.00
2023-04-10T04:16:35.241Z,7.04
2023-04-10T04:19:10.488Z,7.10
2023-04-10T04:21:46.054Z,7.15
2023-04-10T04:24:22.451Z,7.20
2023-04-10T04:27:03.849Z,7.22
2023-04-10T04:29:55.531Z,7.25
2023-04-10T04:32:33.304Z,7.28
2023-04-10T04:35:11.988Z,7.31
2023-04-10T04:37:47.151Z,7.35
2023-04-10T04:40:23.401Z,7.41
2023-04-10T04:43:10.760Z,7.45
2023-04-10T04:46:03.730Z,7.52
2023-04-10T04:48:55.013Z,7.60
2023-04-10T04:51:30.209Z,7.69
2023-04-10T04:54:06.171Z,7.74
2023-04-10T04:56:53.005Z,7.82
2023-04-10T04:59:28.257Z,7.88
2023-04-10T05:02:05.959Z,7.94
2023-04-10T05:04:40.985Z,8.01
2023-04-10T05:07:16.192Z,8.09
2023-04-10T05:09:51.986Z,8.19
2023-04-10T05:12:24.866Z,8.30
2023-04-10T05:15:03.299Z,8.40
2023-04-10T05:17:38.357Z,8.50
2023-04-10T05:20:19.748Z,8.61
2023-04-10T05:23:11.501Z,8.69
2023-04-10T05:25:47.627Z,8.79
2023-04-10T05:28:28.171Z,8.86
2023-04-10T05:31:06.526Z,8.96
2023-04-10T05:33:41.818Z,9.05
2023-04-10T05:36:19.301Z,9.15
2023-04-10T05:39:00.489Z,9.24
2023-04-10T05:41:44.065Z,9.34
2023-04-10T05:44:35.274Z,9.40
2023-04-10T05:47:10.530Z,9.49
2023-04-10T05:49:47.655Z,9.55
2023-04-10T05:52:23.403Z,9.64
2023-04-10T05:55:11.467Z,9.73
2023-04-10T05:57:57.975Z,9.84
2023-04-10T06:00:36.158Z,9.95
2023-04-10T06:03:31.065Z,10.06
2023-04-10T06:06:08.048Z,10.17
2023-04-10T06:08:41.796Z,10.25
2023-04-10T06:11:15.727Z,10.36
2023-04-10T06:13:50.434Z,10.44
2023-04-10T06:16:24.166Z,10.53
2023-04-10T06:18:57.939Z,10.64
2023-04-10T06:21:31.075Z,10.74
2023-04-10T06:24:04.628Z,10.85
2023-04-10T06:26:39.692Z,10.96
2023-04-10T06:29:11.915Z,11.07
2023-04-10T06:31:45.912Z,11.16
2023-04-10T06:34:19.564Z,11.25
2023-04-10T06:36:54.117Z,11.34
2023-04-10T06:39:27.686Z,11.44
2023-04-10T06:42:01.569Z,11.50
2023-04-10T06:44:36.722Z,11.59
2023-04-10T06:47:10.670Z,11.69
2023-04-10T06:49:43.307Z,11.80
2023-04-10T06:52:16.306Z,11.87
2023-04-10T06:54:49.715Z,11.95
2023-04-10T06:57:23.052Z,12.03
2023-04-10T06:59:56.729Z,12.09
2023-04-10T07:02:29.938Z,12.17
2023-04-10T07:05:04.754Z,12.20
2023-04-10T07:07:38.837Z,12.22
2023-04-10T07:10:13.690Z,12.24
2023-04-10T07:12:46.651Z,12.22
2023-04-10T07:15:20.389Z,12.25
2023-04-10T07:17:53.895Z,12.34
2023-04-10T07:20:28.408Z,12.44
2023-04-10T07:23:02.041Z,12.55
2023-04-10T07:25:36.613Z,12.64
2023-04-10T07:28:08.883Z,12.70
2023-04-10T07:30:42.367Z,12.73
2023-04-10T07:33:16.084Z,12.72
2023-04-10T07:35:50.943Z,12.72
2023-04-10T07:38:25.353Z,12.71
2023-04-10T07:40:59.669Z,12.73
2023-04-10T07:43:32.640Z,12.77
2023-04-10T07:46:06.663Z,12.84
2023-04-10T07:48:39.624Z,12.97
2023-04-10T07:51:12.912Z,13.11
2023-04-10T07:53:45.757Z,13.25
2023-04-10T07:56:20.442Z,13.35
2023-04-10T07:58:54.841Z,13.39
2023-04-10T08:01:29.155Z,13.45
2023-04-10T08:04:05.629Z,13.51
2023-04-10T08:06:37.911Z,13.56
2023-04-10T08:09:11.053Z,13.66
2023-04-10T08:11:44.776Z,13.70
2023-04-10T08:14:18.709Z,13.69
2023-04-10T08:16:51.553Z,13.66
2023-04-10T08:19:24.907Z,13.65
2023-04-10T08:22:00.221Z,13.62
2023-04-10T08:24:33.705Z,13.65
2023-04-10T08:27:07.344Z,13.73
2023-04-10T08:29:41.244Z,13.84
2023-04-10T08:32:14.200Z,13.94
2023-04-10T08:34:47.117Z,14.03
2023-04-10T08:37:21.651Z,14.08
2023-04-10T08:39:55.834Z,14.07
2023-04-10T08:42:29.653Z,14.06
2023-04-10T08:45:02.835Z,14.08
2023-04-10T08:47:38.793Z,14.13
2023-04-10T08:50:14.250Z,14.18
2023-04-10T08:52:48.315Z,14.23
2023-04-10T08:55:22.112Z,14.25
2023-04-10T08:58:00.901Z,14.28
2023-04-10T09:00:31.837Z,14.31
2023-04-10T09:03:08.962Z,14.33
2023-04-10T09:05:42.191Z,14.35
2023-04-10T09:08:16.857Z,14.40
2023-04-10T09:10:52.816Z,14.45
2023-04-10T09:13:41.413Z,14.51
2023-04-10T09:16:16.183Z,14.58
2023-04-10T09:18:52.610Z,14.63
2023-04-10T09:21:27.343Z,14.68
2023-04-10T09:24:03.580Z,14.75
2023-04-10T09:26:37.109Z,14.80
2023-04-10T09:29:11.993Z,14.83
2023-04-10T09:31:46.564Z,14.86
2023-04-10T09:34:22.771Z,14.91
2023-04-10T09:37:01.911Z,15.04
2023-04-10T09:39:41.413Z,15.15
2023-04-10T09:42:15.292Z,15.22
2023-04-10T09:44:48.241Z,15.25
2023-04-10T09:47:22.724Z,15.26
2023-04-10T09:50:00.003Z,15.30
2023-04-10T09:52:36.181Z,15.35
2023-04-10T09:55:11.048Z,15.40
2023-04-10T09:57:44.545Z,15.47
2023-04-10T10:00:18.414Z,15.53
2023-04-10T10:02:52.650Z,15.59
2023-04-10T10:05:30.873Z,15.67
2023-04-10T10:08:05.455Z,15.75
2023-04-10T10:10:52.738Z,15.80
2023-04-10T10:13:36.744Z,15.82
2023-04-10T10:16:22.913Z,15.84
2023-04-10T10:19:12.342Z,15.81
2023-04-10T10:21:47.035Z,15.86
2023-04-10T10:24:22.671Z,15.95
2023-04-10T10:26:57.505Z,16.05
2023-04-10T10:29:34.213Z,16.14
2023-04-10T10:32:09.050Z,16.21
2023-04-10T10:34:41.730Z,16.20
2023-04-10T10:37:14.953Z,16.17
2023-04-10T10:40:13.443Z,16.10
2023-04-10T10:43:28.763Z,16.08
2023-04-10T10:46:10.931Z,16.12
2023-04-10T10:48:59.616Z,16.17
2023-04-10T10:51:52.466Z,16.18
2023-04-10T10:54:42.242Z,16.15
2023-04-10T10:57:15.783Z,16.15
2023-04-10T10:59:55.520Z,16.13
2023-04-10T11:02:29.060Z,16.17
2023-04-10T11:05:02.198Z,16.21
2023-04-10T11:08:06.307Z,16.21
2023-04-10T11:11:08.543Z,16.22
2023-04-10T11:13:44.887Z,16.25
2023-04-10T11:16:17.997Z,16.30
2023-04-10T11:19:10.609Z,16.33
2023-04-10T11:21:31.861Z,16.35
2023-04-10T11:24:07.739Z,16.37
2023-04-10T11:26:43.869Z,16.41
2023-04-10T11:29:21.283Z,16.44
2023-04-10T11:32:04.715Z,16.44
2023-04-10T11:34:43.252Z,16.45
2023-04-10T11:37:25.028Z,16.46
2023-04-10T11:40:09.176Z,16.43
2023-04-10T11:42:42.178Z,16.40
2023-04-10T11:45:30.978Z,16.41
2023-04-10T11:48:03.990Z,16.43
2023-04-10T11:50:38.441Z,16.45
2023-04-10T11:53:23.127Z,16.46
2023-04-10T11:55:57.084Z,16.45
2023-04-10T11:58:32.769Z,16.43
2023-04-10T12:01:07.055Z,16.42
2023-04-10T12:03:43.798Z,16.41
2023-04-10T12:06:19.375Z,16.41
2023-04-10T12:08:52.759Z,16.41
2023-04-10T12:11:29.090Z,16.42
2023-04-10T12:14:02.163Z,16.45
2023-04-10T12:16:35.556Z,16.46
2023-04-10T12:19:09.074Z,16.47
2023-04-10T12:21:43.438Z,16.46
2023-04-10T12:24:37.947Z,16.44
2023-04-10T12:27:21.874Z,16.43
2023-04-10T12:29:59.903Z,16.46
2023-04-10T12:32:33.358Z,16.53
2023-04-10T12:35:07.084Z,16.60
2023-04-10T12:37:52.539Z,16.64
2023-04-10T12:40:25.685Z,16.69
2023-04-10T12:42:58.692Z,16.69
2023-04-10T12:45:47.214Z,16.68
2023-04-10T12:48:26.526Z,16.66
2023-04-10T12:51:01.494Z,16.64
2023-04-10T12:53:45.546Z,16.63
2023-04-10T12:56:20.142Z,16.63
2023-04-10T12:58:58.798Z,16.62
2023-04-10T13:01:31.928Z,16.62
2023-04-10T13:04:04.860Z,16.62
2023-04-10T13:06:47.238Z,16.66
2023-04-10T13:09:20.257Z,16.71
2023-04-10T13:11:54.868Z,16.74
2023-04-10T13:14:27.920Z,16.74
2023-04-10T13:17:00.928Z,16.76
2023-04-10T13:19:34.691Z,16.76
2023-04-10T13:22:09.100Z,16.77
2023-04-10T13:24:42.977Z,16.75
2023-04-10T13:27:15.781Z,16.73
2023-04-10T13:29:49.876Z,16.70
2023-04-10T13:32:22.952Z,16.67
2023-04-10T13:34:57.543Z,16.63
2023-04-10T13:37:31.494Z,16.59
2023-04-10T13:40:05.532Z,16.54
2023-04-10T13:42:41.235Z,16.49
2023-04-10T13:45:13.848Z,16.45
2023-04-10T13:47:46.913Z,16.44
2023-04-10T13:50:20.550Z,16.39
2023-04-10T13:52:54.322Z,16.39
2023-04-10T13:55:27.608Z,16.34
2023-04-10T13:58:00.586Z,16.31
2023-04-10T14:00:34.157Z,16.26
2023-04-10T14:03:10.704Z,16.22
2023-04-10T14:05:45.118Z,16.20
2023-04-10T14:08:18.399Z,16.18
2023-04-10T14:10:51.872Z,16.15
2023-04-10T14:13:24.814Z,16.15
2023-04-10T14:15:57.867Z,16.13
2023-04-10T14:18:30.720Z,16.11
2023-04-10T14:21:05.507Z,16.10
2023-04-10T14:23:38.782Z,16.07
2023-04-10T14:26:11.852Z,16.04
2023-04-10T14:28:46.387Z,16.02
2023-04-10T14:31:19.427Z,16.01
2023-04-10T14:33:53.124Z,15.99
2023-04-10T14:36:28.206Z,15.97
2023-04-10T14:39:00.517Z,15.96
2023-04-10T14:41:33.930Z,15.90
2023-04-10T14:44:07.103Z,15.87
2023-04-10T14:46:40.743Z,15.82
2023-04-10T14:49:15.712Z,15.79
2023-04-10T14:51:50.582Z,15.75
2023-04-10T14:54:24.586Z,15.71
2023-04-10T14:56:58.512Z,15.68
2023-04-10T14:59:31.979Z,15.65
2023-04-10T15:02:05.019Z,15.61
2023-04-10T15:04:38.893Z,15.55
2023-04-10T15:07:12.229Z,15.50
2023-04-10T15:09:45.103Z,15.44
2023-04-10T15:12:20.305Z,15.41
2023-04-10T15:14:54.097Z,15.37
2023-04-10T15:17:27.244Z,15.34
2023-04-10T15:20:00.939Z,15.28
2023-04-10T15:22:35.838Z,15.28
2023-04-10T15:25:11.375Z,15.23
2023-04-10T15:27:44.797Z,15.20
2023-04-10T15:30:18.280Z,15.17
2023-04-10T15:32:52.057Z,15.13
2023-04-10T15:35:26.822Z,15.10
2023-04-10T15:37:59.617Z,15.07
2023-04-10T15:40:33.047Z,15.03
2023-04-10T15:43:06.688Z,15.00
2023-04-10T15:45:40.283Z,14.98
2023-04-10T15:48:14.562Z,14.93
2023-04-10T15:50:47.526Z,14.89
2023-04-10T15:53:20.742Z,14.83
2023-04-10T15:55:53.522Z,14.80
2023-04-10T15:58:28.232Z,14.75
2023-04-10T16:01:01.138Z,14.71
2023-04-10T16:03:34.315Z,14.68
2023-04-10T16:06:09.176Z,14.63
2023-04-10T16:08:41.511Z,14.59
2023-04-10T16:11:14.926Z,14.55
2023-04-10T16:13:48.516Z,14.48
2023-04-10T16:16:21.813Z,14.46
2023-04-10T16:18:55.545Z,14.40
2023-04-10T16:21:29.157Z,14.35
2023-04-10T16:24:02.605Z,14.30
2023-04-10T16:26:36.159Z,14.26
2023-04-10T16:29:09.530Z,14.20
2023-04-10T16:31:42.542Z,14.15
2023-04-10T16:34:15.404Z,14.09
2023-04-10T16:36:48.243Z,14.05
2023-04-10T16:39:21.748Z,14.01
2023-04-10T16:41:54.917Z,13.99
2023-04-10T16:44:27.827Z,13.95
2023-04-10T16:47:01.118Z,13.91
2023-04-10T16:49:34.143Z,13.88
2023-04-10T16:52:07.287Z,13.85
2023-04-10T16:54:41.525Z,13.82
2023-04-10T16:57:14.421Z,13.78
2023-04-10T16:59:47.972Z,13.77
2023-04-10T17:02:22.910Z,13.73
2023-04-10T17:04:59.097Z,13.69
2023-04-10T17:07:32.894Z,13.65
2023-04-10T17:10:06.716Z,13.61
2023-04-10T17:12:40.376Z,13.58
2023-04-10T17:15:14.804Z,13.53
2023-04-10T17:17:48.739Z,13.48
2023-04-10T17:20:22.165Z,13.46
2023-04-10T17:22:55.228Z,13.42
2023-04-10T17:25:28.261Z,13.38
2023-04-10T17:28:01.501Z,13.33
2023-04-10T17:30:35.509Z,13.29
2023-04-10T17:33:09.139Z,13.24
2023-04-10T17:35:43.008Z,13.18
2023-04-10T17:38:16.452Z,13.16
2023-04-10T17:40:49.554Z,13.13
2023-04-10T17:43:23.616Z,13.09
2023-04-10T17:45:56.665Z,13.07
2023-04-10T17:48:30.806Z,13.05
2023-04-10T17:51:08.616Z,13.01
2023-04-10T17:53:42.360Z,12.98
2023-04-10T17:56:22.181Z,12.94
2023-04-10T17:58:56.756Z,12.90
2023-04-10T18:01:31.454Z,12.87
2023-04-10T18:04:06.260Z,12.82
2023-04-10T18:06:41.132Z,12.78
2023-04-10T18:09:14.238Z,12.74
2023-04-10T18:11:48.170Z,12.70
2023-04-10T18:14:21.839Z,12.65
2023-04-10T18:16:54.952Z,12.62
2023-04-10T18:19:30.057Z,12.57
2023-04-10T18:22:03.289Z,12.55
2023-04-10T18:24:36.670Z,12.54
2023-04-10T18:27:09.720Z,12.53
2023-04-10T18:29:46.378Z,12.52
2023-04-10T18:32:19.517Z,12.51
2023-04-10T18:34:53.112Z,12.51
2023-04-10T18:37:26.229Z,12.51
2023-04-10T18:40:06.439Z,12.50
2023-04-10T18:42:34.545Z,12.50
2023-04-10T18:45:09.002Z,12.49
2023-04-10T18:47:42.092Z,12.49
2023-04-10T18:50:15.073Z,12.48
2023-04-10T18:52:48.473Z,12.46
2023-04-10T18:55:22.410Z,12.45
2023-04-10T18:57:55.271Z,12.42
2023-04-10T19:00:28.599Z,12.41
2023-04-10T19:03:03.114Z,12.41
2023-04-10T19:05:37.782Z,12.43
2023-04-10T19:08:12.347Z,12.45
2023-04-10T19:10:45.709Z,12.45
2023-04-10T19:13:19.613Z,12.44
2023-04-10T19:15:53.518Z,12.43
2023-04-10T19:18:26.977Z,12.42
2023-04-10T19:21:01.451Z,12.41
2023-04-10T19:23:36.403Z,12.36
2023-04-10T19:26:09.974Z,12.33
2023-04-10T19:28:43.525Z,12.29
2023-04-10T19:31:17.358Z,12.25
2023-04-10T19:33:50.518Z,12.24
2023-04-10T19:36:23.655Z,12.22
2023-04-10T19:38:57.633Z,12.24
2023-04-10T19:41:31.300Z,12.23
2023-04-10T19:44:04.377Z,12.22
2023-04-10T19:46:38.317Z,12.21
2023-04-10T19:49:11.599Z,12.18
2023-04-10T19:51:44.995Z,12.15
2023-04-10T19:54:19.648Z,12.09
2023-04-10T19:56:52.707Z,12.03
2023-04-10T19:59:26.636Z,11.98
2023-04-10T20:02:00.401Z,11.92
2023-04-10T20:04:33.903Z,11.89
2023-04-10T20:07:07.749Z,11.85
2023-04-10T20:09:41.608Z,11.84
2023-04-10T20:12:16.466Z,11.80
2023-04-10T20:14:49.563Z,11.77
2023-04-10T20:17:22.680Z,11.74
2023-04-10T20:19:56.140Z,11.70
2023-04-10T20:22:31.581Z,11.67
2023-04-10T20:25:04.569Z,11.63
2023-04-10T20:27:37.780Z,11.60
2023-04-10T20:30:11.697Z,11.55
2023-04-10T20:32:44.439Z,11.52
2023-04-10T20:35:17.233Z,11.50
2023-04-10T20:37:51.360Z,11.48
2023-04-10T20:40:24.505Z,11.47
2023-04-10T20:42:58.225Z,11.44
2023-04-10T20:45:31.517Z,11.41
2023-04-10T20:48:04.927Z,11.37
2023-04-10T20:50:38.143Z,11.35
2023-04-10T20:53:13.043Z,11.33
2023-04-10T20:55:46.289Z,11.33
2023-04-10T20:58:20.271Z,11.30
2023-04-10T21:00:54.744Z,11.29
2023-04-10T21:03:29.116Z,11.28
2023-04-10T21:06:07.180Z,11.26
2023-04-10T21:08:40.652Z,11.25
2023-04-10T21:11:14.012Z,11.20
2023-04-10T21:13:47.821Z,11.17
2023-04-10T21:16:20.854Z,11.13
2023-04-10T21:18:54.630Z,11.12
2023-04-10T21:21:28.509Z,11.11
2023-04-10T21:24:01.871Z,11.08
2023-04-10T21:26:35.041Z,11.05
2023-04-10T21:29:08.140Z,11.03
2023-04-10T21:31:41.338Z,11.00
2023-04-10T21:34:15.008Z,10.98
2023-04-10T21:36:48.749Z,10.95
2023-04-10T21:39:21.600Z,10.95
2023-04-10T21:41:54.891Z,10.94
2023-04-10T21:44:27.860Z,10.93
2023-04-10T21:47:01.146Z,10.94
2023-04-10T21:49:34.524Z,10.92
2023-04-10T21:52:07.531Z,10.91
2023-04-10T21:54:41.220Z,10.87
2023-04-10T21:57:14.268Z,10.84
2023-04-10T21:59:47.041Z,10.81
2023-04-10T22:02:20.205Z,10.82
2023-04-10T22:04:54.912Z,10.82
2023-04-10T22:07:28.045Z,10.84
2023-04-10T22:10:01.131Z,10.84
2023-04-10T22:12:34.756Z,10.82
2023-04-10T22:15:09.184Z,10.79
2023-04-10T22:17:42.915Z,10.75
2023-04-10T22:20:17.290Z,10.68
2023-04-10T22:22:50.922Z,10.63
2023-04-10T22:25:24.040Z,10.60
2023-04-10T22:27:59.175Z,10.57
2023-04-10T22:30:33.307Z,10.55
2023-04-10T22:33:06.505Z,10.53
2023-04-10T22:35:40.244Z,10.50
2023-04-10T22:38:13.300Z,10.50
2023-04-10T22:40:48.516Z,10.49
2023-04-10T22:43:21.627Z,10.48
2023-04-10T22:45:54.699Z,10.47
2023-04-10T22:48:28.771Z,10.44
2023-04-10T22:51:02.198Z,10.43
2023-04-10T22:53:35.085Z,10.43
2023-04-10T22:56:11.104Z,10.42
2023-04-10T22:58:44.531Z,10.40
2023-04-10T23:01:17.598Z,10.36
2023-04-10T23:03:52.887Z,10.32
2023-04-10T23:06:26.040Z,10.27
2023-04-10T23:08:59.127Z,10.22
2023-04-10T23:11:33.452Z,10.19
2023-04-10T23:14:06.968Z,10.18
2023-04-10T23:16:40.058Z,10.18
2023-04-10T23:19:12.946Z,10.15
2023-04-10T23:21:47.175Z,10.16
2023-04-10T23:24:21.505Z,10.14
2023-04-10T23:26:55.135Z,10.16
2023-04-10T23:29:28.635Z,10.14
2023-04-10T23:32:01.791Z,10.14
2023-04-10T23:34:34.984Z,10.14
2023-04-10T23:37:10.268Z,10.13
2023-04-10T23:39:43.275Z,10.13
2023-04-10T23:42:16.898Z,10.16
2023-04-10T23:44:50.521Z,10.18
2023-04-10T23:47:24.066Z,10.18
2023-04-10T23:49:57.695Z,10.20
2023-04-10T23:52:31.122Z,10.22
2023-04-10T23:55:06.702Z,10.24
2023-04-10T23:57:39.612Z,10.26
